sensor_id;sensor_type;location;lat;lon;timestamp;temperature;humidity
37560;DHT22;23398;50.928;7.084;2023-03-23T00:01:55;17.10;61.60
37560;DHT22;23398;50.928;7.084;2023-03-23T00:04:21;17.10;61.50
37560;DHT22;23398;50.928;7.084;2023-03-23T00:06:48;17.10;61.50
37560;DHT22;23398;50.928;7.084;2023-03-23T00:09:14;17.00;61.40
37560;DHT22;23398;50.928;7.084;2023-03-23T00:11:41;17.00;61.40
37560;DHT22;23398;50.928;7.084;2023-03-23T00:14:08;17.10;61.50
37560;DHT22;23398;50.928;7.084;2023-03-23T00:16:39;17.10;61.60
37560;DHT22;23398;50.928;7.084;2023-03-23T00:19:09;17.10;61.60
37560;DHT22;23398;50.928;7.084;2023-03-23T00:21:37;17.10;61.60
37560;DHT22;23398;50.928;7.084;2023-03-23T00:24:07;17.10;61.50
37560;DHT22;23398;50.928;7.084;2023-03-23T00:26:34;17.10;61.50
37560;DHT22;23398;50.928;7.084;2023-03-23T00:29:04;17.10;61.30
37560;DHT22;23398;50.928;7.084;2023-03-23T00:31:30;17.10;61.50
37560;DHT22;23398;50.928;7.084;2023-03-23T00:34:03;17.10;61.50
37560;DHT22;23398;50.928;7.084;2023-03-23T00:36:33;17.00;61.30
37560;DHT22;23398;50.928;7.084;2023-03-23T00:39:01;17.10;61.30
37560;DHT22;23398;50.928;7.084;2023-03-23T00:41:28;17.10;61.40
37560;DHT22;23398;50.928;7.084;2023-03-23T00:43:55;17.10;61.50
37560;DHT22;23398;50.928;7.084;2023-03-23T00:46:22;17.10;61.50
37560;DHT22;23398;50.928;7.084;2023-03-23T00:48:48;17.10;61.60
37560;DHT22;23398;50.928;7.084;2023-03-23T00:51:16;17.10;61.60
37560;DHT22;23398;50.928;7.084;2023-03-23T00:53:42;17.10;61.60
37560;DHT22;23398;50.928;7.084;2023-03-23T00:56:08;17.10;61.60
37560;DHT22;23398;50.928;7.084;2023-03-23T00:58:34;17.10;61.70
37560;DHT22;23398;50.928;7.084;2023-03-23T01:01:00;17.10;61.60
37560;DHT22;23398;50.928;7.084;2023-03-23T01:03:26;17.10;61.60
37560;DHT22;23398;50.928;7.084;2023-03-23T01:05:53;17.10;61.60
37560;DHT22;23398;50.928;7.084;2023-03-23T01:08:21;17.10;61.60
37560;DHT22;23398;50.928;7.084;2023-03-23T01:10:47;17.10;61.70
37560;DHT22;23398;50.928;7.084;2023-03-23T01:13:13;17.10;61.90
37560;DHT22;23398;50.928;7.084;2023-03-23T01:15:39;17.10;62.30
37560;DHT22;23398;50.928;7.084;2023-03-23T01:18:05;17.10;62.60
37560;DHT22;23398;50.928;7.084;2023-03-23T01:20:31;17.10;62.90
37560;DHT22;23398;50.928;7.084;2023-03-23T01:22:58;17.00;62.80
37560;DHT22;23398;50.928;7.084;2023-03-23T01:25:28;17.00;62.90
37560;DHT22;23398;50.928;7.084;2023-03-23T01:27:55;17.00;63.20
37560;DHT22;23398;50.928;7.084;2023-03-23T01:30:21;17.00;63.30
37560;DHT22;23398;50.928;7.084;2023-03-23T01:32:46;16.90;63.20
37560;DHT22;23398;50.928;7.084;2023-03-23T01:35:13;16.90;63.30
37560;DHT22;23398;50.928;7.084;2023-03-23T01:37:39;16.90;63.50
37560;DHT22;23398;50.928;7.084;2023-03-23T01:40:05;16.90;63.50
37560;DHT22;23398;50.928;7.084;2023-03-23T01:42:33;16.80;63.50
37560;DHT22;23398;50.928;7.084;2023-03-23T01:47:49;16.80;64.10
37560;DHT22;23398;50.928;7.084;2023-03-23T01:50:19;16.80;64.00
37560;DHT22;23398;50.928;7.084;2023-03-23T01:52:49;16.90;64.20
37560;DHT22;23398;50.928;7.084;2023-03-23T01:55:15;16.80;64.20
37560;DHT22;23398;50.928;7.084;2023-03-23T01:57:41;16.80;64.50
37560;DHT22;23398;50.928;7.084;2023-03-23T02:00:08;16.80;65.00
37560;DHT22;23398;50.928;7.084;2023-03-23T02:02:43;16.80;65.20
37560;DHT22;23398;50.928;7.084;2023-03-23T02:05:16;16.80;65.20
37560;DHT22;23398;50.928;7.084;2023-03-23T02:07:45;16.70;65.40
37560;DHT22;23398;50.928;7.084;2023-03-23T02:10:11;16.70;65.20
37560;DHT22;23398;50.928;7.084;2023-03-23T02:12:37;16.70;65.60
37560;DHT22;23398;50.928;7.084;2023-03-23T02:15:03;16.70;65.70
37560;DHT22;23398;50.928;7.084;2023-03-23T02:17:53;16.70;65.70
37560;DHT22;23398;50.928;7.084;2023-03-23T02:39:13;16.40;66.10
37560;DHT22;23398;50.928;7.084;2023-03-23T02:41:51;16.40;66.10
37560;DHT22;23398;50.928;7.084;2023-03-23T02:44:19;16.30;66.20
37560;DHT22;23398;50.928;7.084;2023-03-23T02:46:45;16.30;66.90
37560;DHT22;23398;50.928;7.084;2023-03-23T02:49:14;16.30;66.60
37560;DHT22;23398;50.928;7.084;2023-03-23T02:51:43;16.30;66.50
37560;DHT22;23398;50.928;7.084;2023-03-23T02:54:10;16.20;66.50
37560;DHT22;23398;50.928;7.084;2023-03-23T02:56:37;16.20;66.50
37560;DHT22;23398;50.928;7.084;2023-03-23T02:59:03;16.20;66.50
37560;DHT22;23398;50.928;7.084;2023-03-23T03:03:58;16.10;66.50
37560;DHT22;23398;50.928;7.084;2023-03-23T03:06:42;16.10;66.30
37560;DHT22;23398;50.928;7.084;2023-03-23T03:09:33;16.00;66.60
37560;DHT22;23398;50.928;7.084;2023-03-23T03:12:08;16.00;66.50
37560;DHT22;23398;50.928;7.084;2023-03-23T03:14:41;16.00;66.50
37560;DHT22;23398;50.928;7.084;2023-03-23T03:19:40;16.00;66.60
37560;DHT22;23398;50.928;7.084;2023-03-23T03:22:07;15.90;66.60
37560;DHT22;23398;50.928;7.084;2023-03-23T03:24:35;15.90;66.80
37560;DHT22;23398;50.928;7.084;2023-03-23T03:27:04;15.90;66.70
37560;DHT22;23398;50.928;7.084;2023-03-23T03:29:38;15.90;66.80
37560;DHT22;23398;50.928;7.084;2023-03-23T03:32:10;15.90;67.10
37560;DHT22;23398;50.928;7.084;2023-03-23T03:34:37;15.90;67.10
37560;DHT22;23398;50.928;7.084;2023-03-23T03:37:04;15.90;67.20
37560;DHT22;23398;50.928;7.084;2023-03-23T03:39:35;15.90;67.30
37560;DHT22;23398;50.928;7.084;2023-03-23T03:42:01;15.90;67.20
37560;DHT22;23398;50.928;7.084;2023-03-23T03:44:26;15.90;67.30
37560;DHT22;23398;50.928;7.084;2023-03-23T03:46:52;15.90;67.20
37560;DHT22;23398;50.928;7.084;2023-03-23T03:49:18;15.90;67.30
37560;DHT22;23398;50.928;7.084;2023-03-23T03:51:44;15.90;67.20
37560;DHT22;23398;50.928;7.084;2023-03-23T03:54:09;15.90;67.10
37560;DHT22;23398;50.928;7.084;2023-03-23T03:56:36;15.80;67.30
37560;DHT22;23398;50.928;7.084;2023-03-23T03:59:06;15.80;67.40
37560;DHT22;23398;50.928;7.084;2023-03-23T04:01:33;15.80;67.30
37560;DHT22;23398;50.928;7.084;2023-03-23T04:03:59;15.80;67.40
37560;DHT22;23398;50.928;7.084;2023-03-23T04:06:25;15.80;67.40
37560;DHT22;23398;50.928;7.084;2023-03-23T04:08:53;15.80;67.70
37560;DHT22;23398;50.928;7.084;2023-03-23T04:11:20;15.80;67.60
37560;DHT22;23398;50.928;7.084;2023-03-23T04:13:46;15.80;67.80
37560;DHT22;23398;50.928;7.084;2023-03-23T04:16:12;15.80;67.80
37560;DHT22;23398;50.928;7.084;2023-03-23T04:18:37;15.80;67.70
37560;DHT22;23398;50.928;7.084;2023-03-23T04:21:04;15.80;67.70
37560;DHT22;23398;50.928;7.084;2023-03-23T04:23:30;15.80;67.80
37560;DHT22;23398;50.928;7.084;2023-03-23T04:25:59;15.80;68.00
37560;DHT22;23398;50.928;7.084;2023-03-23T04:28:25;15.80;68.10
37560;DHT22;23398;50.928;7.084;2023-03-23T04:30:51;15.80;68.10
37560;DHT22;23398;50.928;7.084;2023-03-23T04:33:22;15.80;68.10
37560;DHT22;23398;50.928;7.084;2023-03-23T04:35:51;15.80;68.20
37560;DHT22;23398;50.928;7.084;2023-03-23T04:38:19;15.80;68.10
37560;DHT22;23398;50.928;7.084;2023-03-23T04:40:46;15.80;68.10
37560;DHT22;23398;50.928;7.084;2023-03-23T04:43:12;15.80;68.30
37560;DHT22;23398;50.928;7.084;2023-03-23T04:45:38;15.80;68.40
37560;DHT22;23398;50.928;7.084;2023-03-23T04:48:06;15.80;68.50
37560;DHT22;23398;50.928;7.084;2023-03-23T04:50:33;15.80;68.50
37560;DHT22;23398;50.928;7.084;2023-03-23T04:53:00;15.80;68.50
37560;DHT22;23398;50.928;7.084;2023-03-23T04:55:30;15.80;68.70
37560;DHT22;23398;50.928;7.084;2023-03-23T04:57:57;15.80;68.90
37560;DHT22;23398;50.928;7.084;2023-03-23T05:00:25;15.80;68.90
37560;DHT22;23398;50.928;7.084;2023-03-23T05:02:51;15.80;69.00
37560;DHT22;23398;50.928;7.084;2023-03-23T05:05:18;15.80;69.00
37560;DHT22;23398;50.928;7.084;2023-03-23T05:07:44;15.80;69.10
37560;DHT22;23398;50.928;7.084;2023-03-23T05:10:12;15.80;69.00
37560;DHT22;23398;50.928;7.084;2023-03-23T05:12:38;15.80;69.00
37560;DHT22;23398;50.928;7.084;2023-03-23T05:15:04;15.80;69.10
37560;DHT22;23398;50.928;7.084;2023-03-23T05:17:31;15.80;69.20
37560;DHT22;23398;50.928;7.084;2023-03-23T05:19:57;15.80;69.20
37560;DHT22;23398;50.928;7.084;2023-03-23T05:22:26;15.90;69.20
37560;DHT22;23398;50.928;7.084;2023-03-23T05:24:51;15.80;69.30
37560;DHT22;23398;50.928;7.084;2023-03-23T05:27:18;15.80;69.30
37560;DHT22;23398;50.928;7.084;2023-03-23T05:29:45;15.80;69.40
37560;DHT22;23398;50.928;7.084;2023-03-23T05:32:14;15.80;69.50
37560;DHT22;23398;50.928;7.084;2023-03-23T05:34:39;15.80;69.50
37560;DHT22;23398;50.928;7.084;2023-03-23T05:37:05;15.90;69.50
37560;DHT22;23398;50.928;7.084;2023-03-23T05:39:31;15.80;69.50
37560;DHT22;23398;50.928;7.084;2023-03-23T05:41:58;15.80;69.60
37560;DHT22;23398;50.928;7.084;2023-03-23T05:44:24;15.90;69.70
37560;DHT22;23398;50.928;7.084;2023-03-23T05:46:49;15.80;69.50
37560;DHT22;23398;50.928;7.084;2023-03-23T05:49:16;15.80;69.60
37560;DHT22;23398;50.928;7.084;2023-03-23T05:51:42;15.80;69.60
37560;DHT22;23398;50.928;7.084;2023-03-23T05:54:09;15.80;69.60
37560;DHT22;23398;50.928;7.084;2023-03-23T05:56:36;15.80;69.70
37560;DHT22;23398;50.928;7.084;2023-03-23T05:59:02;15.80;69.60
37560;DHT22;23398;50.928;7.084;2023-03-23T06:01:28;15.80;69.50
37560;DHT22;23398;50.928;7.084;2023-03-23T06:03:54;15.80;69.60
37560;DHT22;23398;50.928;7.084;2023-03-23T06:06:24;15.80;69.60
37560;DHT22;23398;50.928;7.084;2023-03-23T06:08:50;15.80;69.60
37560;DHT22;23398;50.928;7.084;2023-03-23T06:11:16;15.80;69.80
37560;DHT22;23398;50.928;7.084;2023-03-23T06:13:41;15.80;69.70
37560;DHT22;23398;50.928;7.084;2023-03-23T06:16:08;15.80;69.70
37560;DHT22;23398;50.928;7.084;2023-03-23T06:18:34;15.80;69.70
37560;DHT22;23398;50.928;7.084;2023-03-23T06:21:02;15.80;70.40
37560;DHT22;23398;50.928;7.084;2023-03-23T06:23:29;15.80;69.70
37560;DHT22;23398;50.928;7.084;2023-03-23T06:25:58;15.90;69.80
37560;DHT22;23398;50.928;7.084;2023-03-23T06:28:24;15.90;69.70
37560;DHT22;23398;50.928;7.084;2023-03-23T06:30:50;15.90;69.60
37560;DHT22;23398;50.928;7.084;2023-03-23T06:33:16;15.90;69.50
37560;DHT22;23398;50.928;7.084;2023-03-23T06:35:42;16.00;69.80
37560;DHT22;23398;50.928;7.084;2023-03-23T06:38:08;16.10;69.70
37560;DHT22;23398;50.928;7.084;2023-03-23T06:40:34;16.10;69.60
37560;DHT22;23398;50.928;7.084;2023-03-23T06:43:01;16.20;69.30
37560;DHT22;23398;50.928;7.084;2023-03-23T06:45:27;16.20;68.80
37560;DHT22;23398;50.928;7.084;2023-03-23T06:47:53;16.30;68.70
37560;DHT22;23398;50.928;7.084;2023-03-23T06:50:18;16.40;69.50
37560;DHT22;23398;50.928;7.084;2023-03-23T06:52:49;16.50;68.80
37560;DHT22;23398;50.928;7.084;2023-03-23T06:55:16;16.50;68.30
37560;DHT22;23398;50.928;7.084;2023-03-23T06:57:43;16.60;68.20
37560;DHT22;23398;50.928;7.084;2023-03-23T07:00:10;16.70;67.90
37560;DHT22;23398;50.928;7.084;2023-03-23T07:02:42;16.80;67.60
37560;DHT22;23398;50.928;7.084;2023-03-23T07:05:09;16.90;67.30
37560;DHT22;23398;50.928;7.084;2023-03-23T07:07:37;17.00;67.60
37560;DHT22;23398;50.928;7.084;2023-03-23T07:10:04;17.10;66.60
37560;DHT22;23398;50.928;7.084;2023-03-23T07:12:30;17.20;66.10
37560;DHT22;23398;50.928;7.084;2023-03-23T07:14:56;17.20;65.60
37560;DHT22;23398;50.928;7.084;2023-03-23T07:17:22;17.30;65.40
37560;DHT22;23398;50.928;7.084;2023-03-23T07:19:47;17.30;65.10
37560;DHT22;23398;50.928;7.084;2023-03-23T07:22:13;17.40;65.10
37560;DHT22;23398;50.928;7.084;2023-03-23T07:24:38;17.40;65.10
37560;DHT22;23398;50.928;7.084;2023-03-23T07:27:04;17.40;64.70
37560;DHT22;23398;50.928;7.084;2023-03-23T07:29:30;17.40;64.60
37560;DHT22;23398;50.928;7.084;2023-03-23T07:32:00;17.40;64.40
37560;DHT22;23398;50.928;7.084;2023-03-23T07:34:27;17.50;64.30
37560;DHT22;23398;50.928;7.084;2023-03-23T07:36:52;17.50;64.30
37560;DHT22;23398;50.928;7.084;2023-03-23T07:39:18;17.60;64.20
37560;DHT22;23398;50.928;7.084;2023-03-23T07:41:44;17.60;64.10
37560;DHT22;23398;50.928;7.084;2023-03-23T07:44:10;17.60;63.90
37560;DHT22;23398;50.928;7.084;2023-03-23T07:46:36;17.60;63.60
37560;DHT22;23398;50.928;7.084;2023-03-23T07:49:02;17.70;63.40
37560;DHT22;23398;50.928;7.084;2023-03-23T07:51:31;17.70;63.20
37560;DHT22;23398;50.928;7.084;2023-03-23T07:53:57;17.80;63.00
37560;DHT22;23398;50.928;7.084;2023-03-23T07:56:23;17.80;62.80
37560;DHT22;23398;50.928;7.084;2023-03-23T07:58:49;17.90;62.70
37560;DHT22;23398;50.928;7.084;2023-03-23T08:01:15;17.90;62.60
37560;DHT22;23398;50.928;7.084;2023-03-23T08:03:41;17.90;62.40
37560;DHT22;23398;50.928;7.084;2023-03-23T08:06:07;18.00;62.30
37560;DHT22;23398;50.928;7.084;2023-03-23T08:08:34;18.10;61.90
37560;DHT22;23398;50.928;7.084;2023-03-23T08:10:59;18.10;61.80
37560;DHT22;23398;50.928;7.084;2023-03-23T08:13:25;18.10;61.50
37560;DHT22;23398;50.928;7.084;2023-03-23T08:15:51;18.20;61.40
37560;DHT22;23398;50.928;7.084;2023-03-23T08:18:17;18.30;61.30
37560;DHT22;23398;50.928;7.084;2023-03-23T08:20:43;18.30;60.90
37560;DHT22;23398;50.928;7.084;2023-03-23T08:23:10;18.40;60.70
37560;DHT22;23398;50.928;7.084;2023-03-23T08:25:36;18.50;60.60
37560;DHT22;23398;50.928;7.084;2023-03-23T08:28:02;18.50;60.40
37560;DHT22;23398;50.928;7.084;2023-03-23T08:30:29;18.50;60.10
37560;DHT22;23398;50.928;7.084;2023-03-23T08:32:56;18.60;60.10
37560;DHT22;23398;50.928;7.084;2023-03-23T08:35:22;18.60;60.00
37560;DHT22;23398;50.928;7.084;2023-03-23T08:37:48;18.70;59.90
37560;DHT22;23398;50.928;7.084;2023-03-23T08:40:19;18.80;59.80
37560;DHT22;23398;50.928;7.084;2023-03-23T08:42:47;18.80;59.80
37560;DHT22;23398;50.928;7.084;2023-03-23T08:45:17;18.80;59.60
37560;DHT22;23398;50.928;7.084;2023-03-23T08:47:43;18.90;59.60
37560;DHT22;23398;50.928;7.084;2023-03-23T08:50:12;18.90;59.40
37560;DHT22;23398;50.928;7.084;2023-03-23T08:52:39;18.90;59.30
37560;DHT22;23398;50.928;7.084;2023-03-23T08:55:05;19.00;59.20
37560;DHT22;23398;50.928;7.084;2023-03-23T08:57:34;19.10;59.20
37560;DHT22;23398;50.928;7.084;2023-03-23T09:00:02;19.10;59.10
37560;DHT22;23398;50.928;7.084;2023-03-23T09:02:38;19.20;58.70
37560;DHT22;23398;50.928;7.084;2023-03-23T09:05:04;19.30;58.90
37560;DHT22;23398;50.928;7.084;2023-03-23T09:07:30;19.40;58.80
37560;DHT22;23398;50.928;7.084;2023-03-23T09:09:55;19.40;58.50
37560;DHT22;23398;50.928;7.084;2023-03-23T09:12:21;19.50;58.20
37560;DHT22;23398;50.928;7.084;2023-03-23T09:14:47;19.50;58.20
37560;DHT22;23398;50.928;7.084;2023-03-23T09:17:12;19.50;57.90
37560;DHT22;23398;50.928;7.084;2023-03-23T09:19:38;19.60;58.00
37560;DHT22;23398;50.928;7.084;2023-03-23T09:22:04;19.60;57.80
37560;DHT22;23398;50.928;7.084;2023-03-23T09:24:30;19.70;57.90
37560;DHT22;23398;50.928;7.084;2023-03-23T09:26:56;19.70;58.00
37560;DHT22;23398;50.928;7.084;2023-03-23T09:29:24;19.70;58.10
37560;DHT22;23398;50.928;7.084;2023-03-23T09:31:49;19.80;58.10
37560;DHT22;23398;50.928;7.084;2023-03-23T09:34:15;19.90;57.90
37560;DHT22;23398;50.928;7.084;2023-03-23T09:36:41;20.00;57.70
37560;DHT22;23398;50.928;7.084;2023-03-23T09:39:08;20.20;57.60
37560;DHT22;23398;50.928;7.084;2023-03-23T09:42:00;20.30;57.30
37560;DHT22;23398;50.928;7.084;2023-03-23T09:44:45;20.40;57.10
37560;DHT22;23398;50.928;7.084;2023-03-23T09:50:17;20.60;56.60
37560;DHT22;23398;50.928;7.084;2023-03-23T09:53:00;20.70;55.90
37560;DHT22;23398;50.928;7.084;2023-03-23T09:55:26;20.60;54.90
37560;DHT22;23398;50.928;7.084;2023-03-23T10:03:41;20.50;54.10
37560;DHT22;23398;50.928;7.084;2023-03-23T10:06:10;20.40;54.00
37560;DHT22;23398;50.928;7.084;2023-03-23T10:08:41;20.30;54.30
37560;DHT22;23398;50.928;7.084;2023-03-23T10:17:15;20.10;54.80
37560;DHT22;23398;50.928;7.084;2023-03-23T10:20:09;20.10;55.00
37560;DHT22;23398;50.928;7.084;2023-03-23T10:22:45;20.10;55.40
37560;DHT22;23398;50.928;7.084;2023-03-23T10:28:10;20.20;55.80
37560;DHT22;23398;50.928;7.084;2023-03-23T10:30:40;20.40;55.70
37560;DHT22;23398;50.928;7.084;2023-03-23T10:38:19;20.80;55.80
37560;DHT22;23398;50.928;7.084;2023-03-23T10:40:50;20.90;55.40
37560;DHT22;23398;50.928;7.084;2023-03-23T10:43:19;20.90;55.40
37560;DHT22;23398;50.928;7.084;2023-03-23T10:45:50;21.00;55.30
37560;DHT22;23398;50.928;7.084;2023-03-23T10:48:27;20.90;55.20
37560;DHT22;23398;50.928;7.084;2023-03-23T10:50:56;20.80;55.30
37560;DHT22;23398;50.928;7.084;2023-03-23T10:53:36;20.80;55.40
37560;DHT22;23398;50.928;7.084;2023-03-23T10:56:03;20.80;55.50
37560;DHT22;23398;50.928;7.084;2023-03-23T10:58:34;20.70;55.70
37560;DHT22;23398;50.928;7.084;2023-03-23T11:01:03;20.70;55.90
37560;DHT22;23398;50.928;7.084;2023-03-23T11:06:03;20.60;56.00
37560;DHT22;23398;50.928;7.084;2023-03-23T11:08:35;20.60;56.20
37560;DHT22;23398;50.928;7.084;2023-03-23T11:11:10;20.60;56.30
37560;DHT22;23398;50.928;7.084;2023-03-23T11:13:41;20.70;56.60
37560;DHT22;23398;50.928;7.084;2023-03-23T11:16:09;20.80;56.90
37560;DHT22;23398;50.928;7.084;2023-03-23T11:18:42;20.80;56.70
37560;DHT22;23398;50.928;7.084;2023-03-23T11:21:12;20.90;56.70
37560;DHT22;23398;50.928;7.084;2023-03-23T11:23:41;21.10;56.90
37560;DHT22;23398;50.928;7.084;2023-03-23T11:26:29;21.30;56.80
37560;DHT22;23398;50.928;7.084;2023-03-23T11:31:45;21.50;56.10
37560;DHT22;23398;50.928;7.084;2023-03-23T11:34:15;21.60;55.90
37560;DHT22;23398;50.928;7.084;2023-03-23T11:36:53;21.80;55.90
37560;DHT22;23398;50.928;7.084;2023-03-23T11:39:25;21.80;55.40
37560;DHT22;23398;50.928;7.084;2023-03-23T11:41:52;21.80;55.30
37560;DHT22;23398;50.928;7.084;2023-03-23T11:44:18;21.80;55.10
37560;DHT22;23398;50.928;7.084;2023-03-23T11:47:05;21.80;55.10
37560;DHT22;23398;50.928;7.084;2023-03-23T11:49:50;21.80;55.00
37560;DHT22;23398;50.928;7.084;2023-03-23T11:55:07;21.80;54.80
37560;DHT22;23398;50.928;7.084;2023-03-23T11:57:35;21.80;54.90
37560;DHT22;23398;50.928;7.084;2023-03-23T12:00:01;21.70;55.20
37560;DHT22;23398;50.928;7.084;2023-03-23T12:05:32;21.60;54.90
37560;DHT22;23398;50.928;7.084;2023-03-23T12:08:04;21.50;54.90
37560;DHT22;23398;50.928;7.084;2023-03-23T12:15:54;21.20;54.90
37560;DHT22;23398;50.928;7.084;2023-03-23T12:18:37;21.10;55.20
37560;DHT22;23398;50.928;7.084;2023-03-23T12:23:55;21.00;55.30
37560;DHT22;23398;50.928;7.084;2023-03-23T12:26:26;20.90;55.50
37560;DHT22;23398;50.928;7.084;2023-03-23T12:29:10;20.90;55.80
37560;DHT22;23398;50.928;7.084;2023-03-23T12:34:46;21.10;56.00
37560;DHT22;23398;50.928;7.084;2023-03-23T12:43:13;21.30;56.00
37560;DHT22;23398;50.928;7.084;2023-03-23T12:46:22;21.40;55.80
37560;DHT22;23398;50.928;7.084;2023-03-23T12:54:13;21.60;54.70
37560;DHT22;23398;50.928;7.084;2023-03-23T12:57:08;21.60;54.40
37560;DHT22;23398;50.928;7.084;2023-03-23T12:59:57;21.60;54.10
37560;DHT22;23398;50.928;7.084;2023-03-23T13:02:26;21.50;54.10
37560;DHT22;23398;50.928;7.084;2023-03-23T13:05:05;21.40;54.10
37560;DHT22;23398;50.928;7.084;2023-03-23T13:07:37;21.30;54.10
37560;DHT22;23398;50.928;7.084;2023-03-23T13:10:22;21.30;54.20
37560;DHT22;23398;50.928;7.084;2023-03-23T13:12:49;21.20;54.30
37560;DHT22;23398;50.928;7.084;2023-03-23T13:15:40;21.20;54.60
37560;DHT22;23398;50.928;7.084;2023-03-23T13:18:17;21.10;54.50
37560;DHT22;23398;50.928;7.084;2023-03-23T13:23:41;21.00;54.70
37560;DHT22;23398;50.928;7.084;2023-03-23T13:26:13;21.00;54.80
37560;DHT22;23398;50.928;7.084;2023-03-23T13:28:58;21.10;54.90
37560;DHT22;23398;50.928;7.084;2023-03-23T13:31:38;21.00;54.80
37560;DHT22;23398;50.928;7.084;2023-03-23T13:36:55;21.00;54.50
37560;DHT22;23398;50.928;7.084;2023-03-23T13:39:25;21.00;54.50
37560;DHT22;23398;50.928;7.084;2023-03-23T13:49:56;20.90;54.70
37560;DHT22;23398;50.928;7.084;2023-03-23T13:57:55;20.70;54.60
37560;DHT22;23398;50.928;7.084;2023-03-23T14:13:01;20.60;55.20
37560;DHT22;23398;50.928;7.084;2023-03-23T14:15:29;20.50;55.10
37560;DHT22;23398;50.928;7.084;2023-03-23T14:17:56;20.50;55.10
37560;DHT22;23398;50.928;7.084;2023-03-23T14:20:40;20.50;55.10
37560;DHT22;23398;50.928;7.084;2023-03-23T14:23:12;20.50;55.10
37560;DHT22;23398;50.928;7.084;2023-03-23T14:25:39;20.50;55.20
37560;DHT22;23398;50.928;7.084;2023-03-23T14:28:17;20.50;55.30
37560;DHT22;23398;50.928;7.084;2023-03-23T14:30:43;20.50;55.30
37560;DHT22;23398;50.928;7.084;2023-03-23T14:33:11;20.50;55.50
37560;DHT22;23398;50.928;7.084;2023-03-23T14:35:41;20.60;55.50
37560;DHT22;23398;50.928;7.084;2023-03-23T14:38:15;20.60;55.20
37560;DHT22;23398;50.928;7.084;2023-03-23T14:40:42;20.60;55.10
37560;DHT22;23398;50.928;7.084;2023-03-23T14:43:10;20.70;55.10
37560;DHT22;23398;50.928;7.084;2023-03-23T14:45:38;20.60;55.00
37560;DHT22;23398;50.928;7.084;2023-03-23T14:48:06;20.60;55.00
37560;DHT22;23398;50.928;7.084;2023-03-23T14:50:40;20.50;54.90
37560;DHT22;23398;50.928;7.084;2023-03-23T14:53:45;20.50;54.70
37560;DHT22;23398;50.928;7.084;2023-03-23T14:56:22;20.50;55.40
37560;DHT22;23398;50.928;7.084;2023-03-23T14:58:51;20.40;54.70
37560;DHT22;23398;50.928;7.084;2023-03-23T15:01:28;20.40;54.80
37560;DHT22;23398;50.928;7.084;2023-03-23T15:04:12;20.30;55.00
37560;DHT22;23398;50.928;7.084;2023-03-23T15:06:40;20.30;56.60
37560;DHT22;23398;50.928;7.084;2023-03-23T15:09:11;20.20;57.20
37560;DHT22;23398;50.928;7.084;2023-03-23T15:11:39;20.20;57.90
37560;DHT22;23398;50.928;7.084;2023-03-23T15:14:30;20.10;58.30
37560;DHT22;23398;50.928;7.084;2023-03-23T15:16:58;20.10;58.20
37560;DHT22;23398;50.928;7.084;2023-03-23T15:19:32;20.10;57.90
37560;DHT22;23398;50.928;7.084;2023-03-23T15:24:40;20.10;57.80
37560;DHT22;23398;50.928;7.084;2023-03-23T15:29:32;20.20;57.90
37560;DHT22;23398;50.928;7.084;2023-03-23T15:31:57;20.30;57.70
37560;DHT22;23398;50.928;7.084;2023-03-23T15:34:30;20.40;57.70
37560;DHT22;23398;50.928;7.084;2023-03-23T15:37:02;20.50;57.40
37560;DHT22;23398;50.928;7.084;2023-03-23T15:39:29;20.50;56.80
37560;DHT22;23398;50.928;7.084;2023-03-23T15:41:56;20.60;56.40
37560;DHT22;23398;50.928;7.084;2023-03-23T15:44:33;20.80;56.40
37560;DHT22;23398;50.928;7.084;2023-03-23T15:47:19;20.80;56.10
37560;DHT22;23398;50.928;7.084;2023-03-23T15:49:46;20.80;55.80
37560;DHT22;23398;50.928;7.084;2023-03-23T15:52:13;20.90;55.60
37560;DHT22;23398;50.928;7.084;2023-03-23T15:54:46;20.90;55.60
37560;DHT22;23398;50.928;7.084;2023-03-23T15:57:12;20.90;55.40
37560;DHT22;23398;50.928;7.084;2023-03-23T15:59:37;20.90;55.30
37560;DHT22;23398;50.928;7.084;2023-03-23T16:02:03;20.90;55.10
37560;DHT22;23398;50.928;7.084;2023-03-23T16:04:29;20.90;54.90
37560;DHT22;23398;50.928;7.084;2023-03-23T16:06:55;20.90;54.70
37560;DHT22;23398;50.928;7.084;2023-03-23T16:09:21;20.90;54.60
37560;DHT22;23398;50.928;7.084;2023-03-23T16:11:47;20.80;54.30
37560;DHT22;23398;50.928;7.084;2023-03-23T16:14:12;20.80;54.20
37560;DHT22;23398;50.928;7.084;2023-03-23T16:16:42;20.80;54.20
37560;DHT22;23398;50.928;7.084;2023-03-23T16:19:12;20.80;54.00
37560;DHT22;23398;50.928;7.084;2023-03-23T16:21:37;20.70;53.80
37560;DHT22;23398;50.928;7.084;2023-03-23T16:24:03;20.60;53.80
37560;DHT22;23398;50.928;7.084;2023-03-23T16:26:29;20.60;53.90
37560;DHT22;23398;50.928;7.084;2023-03-23T16:28:54;20.40;53.90
37560;DHT22;23398;50.928;7.084;2023-03-23T16:31:20;20.40;54.10
37560;DHT22;23398;50.928;7.084;2023-03-23T16:33:46;20.30;54.10
37560;DHT22;23398;50.928;7.084;2023-03-23T16:36:12;20.20;54.10
37560;DHT22;23398;50.928;7.084;2023-03-23T16:38:39;20.10;54.10
37560;DHT22;23398;50.928;7.084;2023-03-23T16:41:04;20.00;54.00
37560;DHT22;23398;50.928;7.084;2023-03-23T16:43:30;20.00;54.00
37560;DHT22;23398;50.928;7.084;2023-03-23T16:45:56;19.90;53.80
37560;DHT22;23398;50.928;7.084;2023-03-23T16:48:22;19.80;53.90
37560;DHT22;23398;50.928;7.084;2023-03-23T16:50:48;19.70;53.80
37560;DHT22;23398;50.928;7.084;2023-03-23T16:53:14;19.60;53.80
37560;DHT22;23398;50.928;7.084;2023-03-23T16:55:40;19.50;53.80
37560;DHT22;23398;50.928;7.084;2023-03-23T16:58:08;19.50;53.90
37560;DHT22;23398;50.928;7.084;2023-03-23T17:00:33;19.40;54.00
37560;DHT22;23398;50.928;7.084;2023-03-23T17:02:59;19.40;54.10
37560;DHT22;23398;50.928;7.084;2023-03-23T17:05:27;19.30;54.00
37560;DHT22;23398;50.928;7.084;2023-03-23T17:07:54;19.30;54.10
37560;DHT22;23398;50.928;7.084;2023-03-23T17:10:21;19.20;54.10
37560;DHT22;23398;50.928;7.084;2023-03-23T17:12:47;19.20;54.20
37560;DHT22;23398;50.928;7.084;2023-03-23T17:15:13;19.10;54.20
37560;DHT22;23398;50.928;7.084;2023-03-23T17:17:39;19.00;54.30
37560;DHT22;23398;50.928;7.084;2023-03-23T17:20:05;19.00;54.40
37560;DHT22;23398;50.928;7.084;2023-03-23T17:22:31;18.90;54.50
37560;DHT22;23398;50.928;7.084;2023-03-23T17:24:57;18.90;54.60
37560;DHT22;23398;50.928;7.084;2023-03-23T17:27:23;18.80;54.70
37560;DHT22;23398;50.928;7.084;2023-03-23T17:29:49;18.70;55.20
37560;DHT22;23398;50.928;7.084;2023-03-23T17:32:15;18.60;54.60
37560;DHT22;23398;50.928;7.084;2023-03-23T17:34:41;18.60;54.60
37560;DHT22;23398;50.928;7.084;2023-03-23T17:37:07;18.50;54.70
37560;DHT22;23398;50.928;7.084;2023-03-23T17:39:32;18.40;54.70
37560;DHT22;23398;50.928;7.084;2023-03-23T17:41:59;18.30;54.80